Time;durP1;ratioP1;P1;durP2;ratioP2;P2;SDS_P1;SDS_P2;PMS_P1;PMS_P2;Temp;Humidity;BMP_temperature;BMP_pressure;BME280_temperature;BME280_humidity;BME280_pressure;Samples;Min_cycle;Max_cycle;Signal;HPM_P1;HPM_P2
2022/11/07 00:01:48;;;;;;;2.47;1.70;;;10.60;99.90;;;;;;5048049;28;20055;-71
2022/11/07 00:04:13;;;;;;;2.88;1.80;;;10.60;99.90;;;;;;5052722;28;20040;-71
2022/11/07 00:06:39;;;;;;;2.42;1.58;;;10.70;99.90;;;;;;5054807;28;20043;-71
2022/11/07 00:09:05;;;;;;;4.05;1.73;;;10.70;99.90;;;;;;5051557;28;20048;-71
2022/11/07 00:11:30;;;;;;;3.03;1.80;;;10.70;99.90;;;;;;5051314;28;20032;-71
2022/11/07 00:13:56;;;;;;;3.45;1.75;;;10.70;99.90;;;;;;5035621;28;20037;-71
2022/11/07 00:16:22;;;;;;;2.50;1.30;;;10.70;99.90;;;;;;5050146;28;20125;-71
2022/11/07 00:18:48;;;;;;;4.30;1.52;;;10.70;99.90;;;;;;5033434;28;20627;-71
2022/11/07 00:21:13;;;;;;;5.35;1.60;;;10.80;99.90;;;;;;5049573;28;20068;-71
2022/11/07 00:23:40;;;;;;;2.30;1.45;;;10.70;99.90;;;;;;5052237;28;20039;-71
2022/11/07 00:26:08;;;;;;;3.55;1.17;;;10.80;99.90;;;;;;5065979;28;20035;-71
2022/11/07 00:28:35;;;;;;;3.45;1.85;;;10.80;99.90;;;;;;5051048;28;20180;-71
2022/11/07 00:31:02;;;;;;;2.78;1.73;;;10.80;99.90;;;;;;5055023;28;20044;-71
2022/11/07 00:33:27;;;;;;;2.50;1.50;;;10.80;99.90;;;;;;5050998;28;20043;-71
2022/11/07 00:35:53;;;;;;;2.47;1.52;;;10.90;99.90;;;;;;5046503;28;20045;-71
2022/11/07 00:38:19;;;;;;;2.55;1.75;;;10.90;99.90;;;;;;5048922;28;20068;-71
2022/11/07 00:41:02;;;;;;;3.63;2.15;;;10.80;99.90;;;;;;5044740;28;20036;-71
2022/11/07 00:43:29;;;;;;;3.42;1.63;;;10.90;99.90;;;;;;5028313;28;20141;-71
2022/11/07 00:45:55;;;;;;;2.85;1.70;;;10.90;99.90;;;;;;5051908;28;20036;-71
2022/11/07 00:48:21;;;;;;;3.17;1.60;;;10.90;99.90;;;;;;5047081;28;20133;-71
2022/11/07 00:50:47;;;;;;;4.78;1.73;;;10.90;99.90;;;;;;5052858;28;20116;-71
2022/11/07 00:53:12;;;;;;;3.25;1.42;;;10.90;99.90;;;;;;5048499;28;20032;-71
2022/11/07 00:55:38;;;;;;;3.50;1.65;;;10.90;99.90;;;;;;5050263;28;20033;-71
2022/11/07 00:58:04;;;;;;;3.75;1.63;;;10.90;99.90;;;;;;5044793;28;20049;-71
2022/11/07 01:00:30;;;;;;;6.00;2.15;;;10.90;99.90;;;;;;5058259;28;20040;-71
2022/11/07 01:05:40;;;;;;;2.65;1.70;;;10.90;99.90;;;;;;5055147;28;20044;-71
2022/11/07 01:08:06;;;;;;;4.20;1.95;;;11.00;99.90;;;;;;5053422;28;20086;-71
2022/11/07 01:10:31;;;;;;;3.50;1.55;;;10.90;99.90;;;;;;5048335;28;20102;-71
2022/11/07 01:12:57;;;;;;;2.35;1.60;;;10.90;99.90;;;;;;5055692;28;20533;-71
2022/11/07 01:15:23;;;;;;;2.92;1.45;;;11.00;99.90;;;;;;5052352;28;20535;-71
2022/11/07 01:17:49;;;;;;;4.25;1.70;;;10.90;99.90;;;;;;5037420;28;20039;-71
2022/11/07 01:20:15;;;;;;;2.53;1.50;;;11.00;99.90;;;;;;5039173;28;20037;-71
2022/11/07 01:22:40;;;;;;;1.70;1.10;;;11.00;99.90;;;;;;5050087;28;20067;-71
2022/11/07 01:25:06;;;;;;;2.35;1.17;;;11.00;99.90;;;;;;5051543;28;20043;-71
2022/11/07 01:27:32;;;;;;;3.85;1.50;;;11.00;99.90;;;;;;5052450;28;20486;-71
2022/11/07 01:29:58;;;;;;;4.50;1.60;;;11.00;99.90;;;;;;5055412;28;20044;-71
2022/11/07 01:32:24;;;;;;;6.45;1.80;;;11.00;99.90;;;;;;5054876;28;20086;-71
2022/11/07 01:34:49;;;;;;;3.42;1.77;;;11.00;99.90;;;;;;5056915;28;20032;-71
2022/11/07 01:37:15;;;;;;;2.13;1.50;;;11.00;99.90;;;;;;5057367;28;20033;-71
2022/11/07 01:39:40;;;;;;;2.67;1.90;;;11.00;99.90;;;;;;5051463;28;20044;-71
2022/11/07 01:42:08;;;;;;;1.63;1.20;;;11.00;99.90;;;;;;5050317;28;20051;-71
2022/11/07 01:44:36;;;;;;;1.92;1.27;;;11.00;99.90;;;;;;5033113;28;20509;-71
2022/11/07 01:47:02;;;;;;;2.17;1.27;;;11.00;99.90;;;;;;5053721;28;20045;-71
2022/11/07 01:49:33;;;;;;;2.92;1.83;;;11.00;99.90;;;;;;5050471;28;20063;-71
2022/11/07 01:52:04;;;;;;;1.80;1.15;;;11.00;99.90;;;;;;5050305;28;20064;-71
2022/11/07 01:54:34;;;;;;;3.22;1.25;;;11.00;99.90;;;;;;5051985;28;20111;-71
2022/11/07 01:57:05;;;;;;;2.20;1.33;;;11.00;99.90;;;;;;5048923;28;20044;-71
2022/11/07 01:59:32;;;;;;;2.13;1.25;;;11.10;99.90;;;;;;5046194;28;20037;-71
2022/11/07 02:01:58;;;;;;;2.47;1.50;;;11.10;99.90;;;;;;5030714;28;20159;-71
2022/11/07 02:04:28;;;;;;;3.60;1.50;;;11.10;99.90;;;;;;5031686;28;20135;-71
2022/11/07 02:07:05;;;;;;;4.78;1.50;;;11.10;99.90;;;;;;5034026;28;20555;-71
2022/11/07 02:09:31;;;;;;;6.80;2.08;;;11.20;99.90;;;;;;5052969;28;20041;-71
2022/11/07 02:11:59;;;;;;;3.40;1.45;;;11.10;99.90;;;;;;5052872;28;20049;-71
2022/11/07 02:14:26;;;;;;;2.70;1.25;;;11.20;99.90;;;;;;5051206;28;20040;-71
2022/11/07 02:16:53;;;;;;;3.38;1.55;;;11.20;99.90;;;;;;5051200;28;20130;-71
2022/11/07 02:19:39;;;;;;;5.30;1.58;;;11.20;99.90;;;;;;5050108;28;20071;-71
2022/11/07 02:22:22;;;;;;;2.63;1.45;;;11.20;99.90;;;;;;5048617;28;20508;-71
2022/11/07 02:24:52;;;;;;;2.95;1.30;;;11.20;99.90;;;;;;5053959;28;20551;-71
2022/11/07 02:27:21;;;;;;;3.70;1.23;;;11.20;99.90;;;;;;5048396;28;20049;-71
2022/11/07 02:29:50;;;;;;;2.47;1.30;;;11.20;99.90;;;;;;5036365;28;20044;-71
2022/11/07 02:32:16;;;;;;;2.53;1.75;;;11.30;99.90;;;;;;5051990;28;20040;-71
2022/11/07 02:34:42;;;;;;;3.60;1.35;;;11.30;99.90;;;;;;5039544;28;20044;-71
2022/11/07 02:37:21;;;;;;;3.50;1.05;;;11.30;99.90;;;;;;5049460;28;20045;-71
2022/11/07 02:39:47;;;;;;;2.08;1.17;;;11.30;99.90;;;;;;5052462;28;20037;-71
2022/11/07 02:42:12;;;;;;;4.90;1.75;;;11.30;99.90;;;;;;5052034;28;20390;-71
2022/11/07 02:44:38;;;;;;;1.95;1.48;;;11.30;99.90;;;;;;5048547;28;20447;-71
2022/11/07 02:47:03;;;;;;;2.72;1.27;;;11.30;99.90;;;;;;5033856;28;20685;-71
2022/11/07 02:49:29;;;;;;;1.70;1.02;;;11.30;99.90;;;;;;5052791;28;20036;-71
2022/11/07 02:51:55;;;;;;;2.17;1.00;;;11.30;99.90;;;;;;5050496;28;20038;-71
2022/11/07 02:54:20;;;;;;;2.13;1.30;;;11.30;99.90;;;;;;5047348;28;20127;-71
2022/11/07 02:56:46;;;;;;;2.65;1.50;;;11.30;99.90;;;;;;5050989;28;20135;-71
2022/11/07 02:59:11;;;;;;;2.05;1.33;;;11.30;99.90;;;;;;5051691;28;20063;-71
2022/11/07 03:01:37;;;;;;;2.40;1.33;;;11.30;99.90;;;;;;5053843;28;20052;-71
2022/11/07 03:04:02;;;;;;;3.05;1.20;;;11.30;99.90;;;;;;5047475;28;20040;-71
2022/11/07 03:06:28;;;;;;;2.00;1.23;;;11.40;99.90;;;;;;5052223;28;20037;-71
2022/11/07 03:08:54;;;;;;;5.20;1.50;;;11.40;99.90;;;;;;5045190;28;20033;-71
2022/11/07 03:11:19;;;;;;;3.65;1.27;;;11.40;99.90;;;;;;5052213;28;20056;-71
2022/11/07 03:13:47;;;;;;;3.28;1.25;;;11.40;99.90;;;;;;5045301;28;20584;-71
2022/11/07 03:16:12;;;;;;;2.10;1.38;;;11.40;99.90;;;;;;5048464;28;20824;-71
2022/11/07 03:18:38;;;;;;;2.08;1.10;;;11.40;99.90;;;;;;5052578;28;20048;-71
2022/11/07 03:21:05;;;;;;;8.02;1.80;;;11.40;99.90;;;;;;5051777;28;20683;-71
2022/11/07 03:23:31;;;;;;;3.65;1.13;;;11.40;99.90;;;;;;5047371;28;20047;-71
2022/11/07 03:25:56;;;;;;;2.28;1.25;;;11.40;99.90;;;;;;5046809;28;20567;-71
2022/11/07 03:28:23;;;;;;;2.72;1.10;;;11.30;99.90;;;;;;5053269;28;20425;-71
2022/11/07 03:30:49;;;;;;;3.28;1.55;;;11.30;99.90;;;;;;5035290;28;20048;-71
2022/11/07 03:33:15;;;;;;;4.15;1.70;;;11.30;99.90;;;;;;5043795;28;20032;-71
2022/11/07 03:35:41;;;;;;;2.08;1.30;;;11.30;99.90;;;;;;5048272;28;20029;-71
2022/11/07 03:38:07;;;;;;;2.00;1.20;;;11.20;99.90;;;;;;5053778;28;20490;-72
2022/11/07 03:40:32;;;;;;;2.05;1.58;;;11.20;99.90;;;;;;5053864;28;20041;-71
2022/11/07 03:42:58;;;;;;;4.22;1.20;;;11.20;99.90;;;;;;5030845;28;20386;-71
2022/11/07 03:45:24;;;;;;;4.82;1.67;;;11.20;99.90;;;;;;5050782;28;20043;-71
2022/11/07 03:47:49;;;;;;;2.08;1.33;;;11.20;99.90;;;;;;5053959;28;20032;-71
2022/11/07 03:50:18;;;;;;;3.92;1.35;;;11.10;99.90;;;;;;5026911;28;20048;-71
2022/11/07 03:52:45;;;;;;;2.10;1.70;;;11.10;99.90;;;;;;5051520;28;20055;-71
2022/11/07 03:55:11;;;;;;;3.75;1.80;;;11.10;99.90;;;;;;5050293;28;20581;-71
2022/11/07 03:57:37;;;;;;;2.50;1.35;;;11.20;99.90;;;;;;5049015;28;20059;-71
2022/11/07 04:00:05;;;;;;;2.30;1.50;;;11.10;99.90;;;;;;5047525;28;20041;-71
2022/11/07 04:02:30;;;;;;;2.55;1.48;;;11.10;99.90;;;;;;5040192;28;20561;-71
2022/11/07 04:04:56;;;;;;;4.55;1.35;;;11.20;99.90;;;;;;5046423;28;20123;-71
2022/11/07 04:07:21;;;;;;;2.38;1.27;;;11.10;99.90;;;;;;5029062;28;20047;-71
2022/11/07 04:09:47;;;;;;;5.15;1.13;;;11.20;99.90;;;;;;5033949;28;20088;-71
2022/11/07 04:17:41;;;;;;;2.65;0.93;;;11.30;99.90;;;;;;5048066;28;20410;-71
2022/11/07 04:20:07;;;;;;;2.17;1.25;;;11.30;99.90;;;;;;5044176;28;20086;-71
2022/11/07 04:22:33;;;;;;;2.67;1.35;;;11.20;99.90;;;;;;5048484;28;20452;-71
2022/11/07 04:24:58;;;;;;;4.15;1.23;;;11.20;99.90;;;;;;5052086;28;20037;-71
2022/11/07 04:27:42;;;;;;;2.55;1.30;;;11.20;99.90;;;;;;5048458;28;20068;-71
2022/11/07 04:30:21;;;;;;;5.20;1.25;;;11.20;99.90;;;;;;5040538;28;20047;-71
2022/11/07 04:32:48;;;;;;;3.00;1.38;;;11.20;99.90;;;;;;5050621;28;20066;-71
2022/11/07 04:35:15;;;;;;;5.32;1.88;;;11.30;99.90;;;;;;5050536;28;20051;-71
2022/11/07 04:37:41;;;;;;;2.15;1.00;;;11.30;99.90;;;;;;5054851;28;20350;-71
2022/11/07 04:40:10;;;;;;;2.38;1.10;;;11.30;99.90;;;;;;5047273;28;20429;-71
2022/11/07 04:42:36;;;;;;;3.53;1.88;;;11.30;99.90;;;;;;5046685;28;20948;-71
2022/11/07 04:45:02;;;;;;;3.28;1.10;;;11.30;99.90;;;;;;5034914;28;20045;-71
2022/11/07 04:47:28;;;;;;;4.40;1.55;;;11.30;99.90;;;;;;5033451;28;20041;-71
2022/11/07 04:49:53;;;;;;;5.30;1.77;;;11.30;99.90;;;;;;5051224;28;20047;-71
2022/11/07 04:52:19;;;;;;;4.20;1.35;;;11.30;99.90;;;;;;5051746;28;20044;-71
2022/11/07 04:54:44;;;;;;;7.13;2.08;;;11.30;99.90;;;;;;5054972;28;20518;-71
2022/11/07 04:57:10;;;;;;;3.10;2.00;;;11.30;99.90;;;;;;5052787;28;20254;-71
2022/11/07 04:59:35;;;;;;;4.45;1.17;;;11.30;99.90;;;;;;5048648;28;20071;-71
2022/11/07 05:02:01;;;;;;;1.83;0.98;;;11.30;99.90;;;;;;5054429;28;20037;-71
2022/11/07 05:04:26;;;;;;;3.17;1.48;;;11.30;99.90;;;;;;5038335;28;20096;-71
2022/11/07 05:06:52;;;;;;;2.72;0.95;;;11.30;99.90;;;;;;5055555;28;20053;-71
2022/11/07 05:09:18;;;;;;;3.20;1.27;;;11.40;99.90;;;;;;5061514;28;20523;-71
2022/11/07 05:11:45;;;;;;;2.22;1.40;;;11.30;99.90;;;;;;5052701;28;21264;-71
2022/11/07 05:14:11;;;;;;;1.55;1.02;;;11.30;99.90;;;;;;5067680;28;20037;-71
2022/11/07 05:16:37;;;;;;;5.18;1.40;;;11.30;99.90;;;;;;5037424;28;20040;-71
2022/11/07 05:19:03;;;;;;;2.70;1.05;;;11.30;99.90;;;;;;5035260;28;20410;-71
2022/11/07 05:21:28;;;;;;;1.80;1.20;;;11.30;99.90;;;;;;5035691;28;20036;-71
2022/11/07 05:23:54;;;;;;;2.80;1.75;;;11.30;99.90;;;;;;5051427;28;20063;-71
2022/11/07 05:26:19;;;;;;;2.83;1.35;;;11.30;99.90;;;;;;5068956;28;20135;-71
2022/11/07 05:28:45;;;;;;;5.85;1.95;;;11.30;99.90;;;;;;5051958;28;20116;-72
2022/11/07 05:31:14;;;;;;;3.47;1.42;;;11.30;99.90;;;;;;5046695;28;20037;-71
2022/11/07 05:33:40;;;;;;;1.77;1.30;;;11.30;99.90;;;;;;5053467;28;20522;-71
2022/11/07 05:36:15;;;;;;;2.42;1.10;;;11.30;99.90;;;;;;5048815;28;20041;-71
2022/11/07 05:38:43;;;;;;;2.47;1.38;;;11.30;99.90;;;;;;5056393;28;20384;-71
2022/11/07 05:41:09;;;;;;;2.30;1.30;;;11.30;99.90;;;;;;5049946;28;20057;-71
2022/11/07 05:43:36;;;;;;;2.95;1.30;;;11.30;99.90;;;;;;5051729;28;20041;-71
2022/11/07 05:46:03;;;;;;;2.55;1.50;;;11.30;99.90;;;;;;5056022;28;20042;-71
2022/11/07 05:48:29;;;;;;;2.33;1.38;;;11.30;99.90;;;;;;5056601;28;20164;-71
2022/11/07 05:50:56;;;;;;;3.35;1.35;;;11.30;99.90;;;;;;5052505;28;20130;-71
2022/11/07 05:53:23;;;;;;;2.10;1.35;;;11.30;99.90;;;;;;5066616;28;20090;-71
2022/11/07 05:55:48;;;;;;;6.38;1.05;;;11.20;99.90;;;;;;5051025;28;20490;-71
2022/11/07 05:58:14;;;;;;;4.50;1.42;;;11.30;99.90;;;;;;5052113;28;20036;-71
2022/11/07 06:00:40;;;;;;;3.88;1.33;;;11.30;99.90;;;;;;5056831;28;20448;-71
2022/11/07 06:03:06;;;;;;;9.18;1.65;;;11.30;99.90;;;;;;5051662;28;20659;-71
2022/11/07 06:05:32;;;;;;;2.50;1.20;;;11.30;99.90;;;;;;5035460;28;20115;-71
2022/11/07 06:07:58;;;;;;;1.67;0.98;;;11.20;99.90;;;;;;5066322;28;20186;-71
2022/11/07 06:10:24;;;;;;;4.32;1.45;;;11.20;99.90;;;;;;5038946;28;20053;-71
2022/11/07 06:13:00;;;;;;;1.92;1.33;;;11.20;99.90;;;;;;5042232;28;20448;-71
2022/11/07 06:15:27;;;;;;;2.60;1.15;;;11.30;99.90;;;;;;5042489;28;20045;-71
2022/11/07 06:17:53;;;;;;;3.03;1.25;;;11.20;99.90;;;;;;5040127;28;20075;-71
2022/11/07 06:20:19;;;;;;;4.68;1.73;;;11.20;99.90;;;;;;5037701;28;22063;-71
2022/11/07 06:22:45;;;;;;;6.95;1.50;;;11.30;99.90;;;;;;5051392;28;20033;-71
2022/11/07 06:25:10;;;;;;;2.22;1.25;;;11.20;99.90;;;;;;5054581;28;20045;-71
2022/11/07 06:27:36;;;;;;;3.00;1.50;;;11.20;99.90;;;;;;5054660;28;20037;-71
2022/11/07 06:30:01;;;;;;;6.45;1.38;;;11.30;99.90;;;;;;5034446;28;20055;-71
2022/11/07 06:32:27;;;;;;;2.85;1.23;;;11.30;99.90;;;;;;5068319;28;20040;-71
2022/11/07 06:34:53;;;;;;;2.28;1.17;;;11.30;99.90;;;;;;5051426;28;20567;-71
2022/11/07 06:37:19;;;;;;;6.15;2.05;;;11.30;99.90;;;;;;5050964;28;20029;-71
2022/11/07 06:39:44;;;;;;;2.75;1.20;;;11.30;99.90;;;;;;5050487;28;20037;-71
2022/11/07 06:42:10;;;;;;;2.03;1.17;;;11.20;99.90;;;;;;5048175;28;20049;-71
2022/11/07 06:44:36;;;;;;;1.73;1.10;;;11.30;99.90;;;;;;5052477;28;20095;-71
2022/11/07 06:47:02;;;;;;;7.53;1.60;;;11.20;99.90;;;;;;5049694;28;20053;-71
2022/11/07 06:49:27;;;;;;;2.28;1.50;;;11.20;99.90;;;;;;5053588;28;20059;-71
2022/11/07 06:51:53;;;;;;;2.95;1.63;;;11.20;99.90;;;;;;5051425;28;20044;-71
2022/11/07 06:54:18;;;;;;;3.40;1.55;;;11.20;99.90;;;;;;5048794;28;20065;-71
2022/11/07 06:56:44;;;;;;;11.45;1.95;;;11.10;99.90;;;;;;5056630;28;20037;-71
2022/11/07 06:59:10;;;;;;;5.05;1.35;;;11.20;99.90;;;;;;5049809;28;20056;-71
2022/11/07 07:01:35;;;;;;;2.63;1.70;;;11.20;99.90;;;;;;5050143;28;20037;-71
2022/11/07 07:04:01;;;;;;;2.38;1.33;;;11.20;99.90;;;;;;5056057;28;20478;-71
2022/11/07 07:06:26;;;;;;;3.17;1.83;;;11.20;99.90;;;;;;5032686;28;20033;-71
2022/11/07 07:08:53;;;;;;;4.72;1.27;;;11.20;99.90;;;;;;5050210;28;20064;-71
2022/11/07 07:11:19;;;;;;;6.18;1.73;;;11.20;99.90;;;;;;5065738;28;20052;-71
2022/11/07 07:13:44;;;;;;;5.57;1.38;;;11.20;99.90;;;;;;5049927;28;21960;-71
2022/11/07 07:16:10;;;;;;;4.00;1.85;;;11.20;99.90;;;;;;5053691;28;20167;-71
2022/11/07 07:18:36;;;;;;;6.70;1.95;;;11.20;99.90;;;;;;5054937;28;20059;-71
2022/11/07 07:21:07;;;;;;;6.50;1.65;;;11.20;99.90;;;;;;5046910;28;20067;-71
2022/11/07 07:23:34;;;;;;;3.00;1.17;;;11.20;99.90;;;;;;5047358;28;20033;-71
2022/11/07 07:26:01;;;;;;;6.78;1.85;;;11.30;99.90;;;;;;5049111;28;20194;-71
2022/11/07 07:28:27;;;;;;;2.63;1.48;;;11.20;99.90;;;;;;5044200;28;20421;-71
2022/11/07 07:30:53;;;;;;;4.50;1.60;;;11.30;99.90;;;;;;5047563;28;20128;-71
2022/11/07 07:33:19;;;;;;;2.35;1.27;;;11.30;99.90;;;;;;5038360;28;20123;-72
2022/11/07 07:35:45;;;;;;;4.03;1.77;;;11.30;99.90;;;;;;5052076;28;20043;-71
2022/11/07 07:38:12;;;;;;;2.63;1.42;;;11.30;99.90;;;;;;5042341;28;20167;-71
2022/11/07 07:40:37;;;;;;;4.20;1.55;;;11.40;99.90;;;;;;5046664;28;20032;-71
2022/11/07 07:43:03;;;;;;;3.17;1.40;;;11.40;99.90;;;;;;5046536;28;20045;-71
2022/11/07 07:45:28;;;;;;;4.15;1.50;;;11.40;99.90;;;;;;5044789;28;20036;-71
2022/11/07 07:48:01;;;;;;;2.60;1.30;;;11.50;99.90;;;;;;5063951;28;20040;-71
2022/11/07 07:50:27;;;;;;;4.30;1.88;;;11.40;99.90;;;;;;5048389;28;20076;-71
2022/11/07 07:52:59;;;;;;;6.70;1.52;;;11.40;99.90;;;;;;5048447;28;20514;-71
2022/11/07 07:55:24;;;;;;;3.60;1.50;;;11.50;99.90;;;;;;5029374;28;20037;-71
2022/11/07 07:57:50;;;;;;;6.68;2.13;;;11.50;99.90;;;;;;5048836;28;20058;-72
2022/11/07 08:00:16;;;;;;;6.50;1.77;;;11.50;99.90;;;;;;5044479;28;20036;-71
2022/11/07 08:02:42;;;;;;;3.85;1.70;;;11.50;99.90;;;;;;5053298;28;20461;-71
2022/11/07 08:05:12;;;;;;;2.10;1.25;;;11.40;99.90;;;;;;5029804;28;20102;-71
2022/11/07 08:07:48;;;;;;;4.30;1.30;;;11.50;99.90;;;;;;5028080;28;20049;-71
2022/11/07 08:10:15;;;;;;;4.57;1.30;;;11.50;99.90;;;;;;5047710;28;20647;-71
2022/11/07 08:12:45;;;;;;;3.03;1.50;;;11.50;99.90;;;;;;5049028;28;20123;-71
2022/11/07 08:15:12;;;;;;;4.20;1.38;;;11.60;99.90;;;;;;5029485;28;20037;-70
2022/11/07 08:17:38;;;;;;;2.20;1.55;;;11.60;99.90;;;;;;5049888;28;20394;-71
2022/11/07 08:20:04;;;;;;;2.65;1.02;;;11.60;99.90;;;;;;5048775;28;20032;-71
2022/11/07 08:22:29;;;;;;;4.70;1.40;;;11.60;99.90;;;;;;5043529;28;21762;-71
2022/11/07 08:24:55;;;;;;;4.60;1.88;;;11.60;99.90;;;;;;5044658;28;20041;-71
2022/11/07 08:27:21;;;;;;;3.22;1.58;;;11.60;99.90;;;;;;5043472;28;20044;-71
2022/11/07 08:29:46;;;;;;;3.88;1.35;;;11.60;99.90;;;;;;5044225;28;20040;-71
2022/11/07 08:32:12;;;;;;;2.90;1.45;;;11.70;99.90;;;;;;5060374;28;20608;-71
2022/11/07 08:34:37;;;;;;;6.80;1.55;;;11.70;99.90;;;;;;5045755;28;20716;-71
2022/11/07 08:37:03;;;;;;;3.33;1.15;;;11.80;99.90;;;;;;5045846;28;20090;-71
2022/11/07 08:39:29;;;;;;;6.15;1.10;;;11.70;99.90;;;;;;5048431;28;20041;-71
2022/11/07 08:41:54;;;;;;;3.30;0.98;;;11.80;99.90;;;;;;5029972;28;20601;-71
2022/11/07 08:44:20;;;;;;;3.38;1.25;;;11.80;99.90;;;;;;5028846;28;20455;-71
2022/11/07 08:46:46;;;;;;;7.10;1.40;;;11.80;99.90;;;;;;5043677;28;20052;-71
2022/11/07 08:49:11;;;;;;;7.85;1.10;;;11.80;99.90;;;;;;5041804;28;20040;-71
2022/11/07 08:51:37;;;;;;;2.55;1.10;;;11.90;99.90;;;;;;5043532;28;20058;-71
2022/11/07 08:54:02;;;;;;;1.75;1.15;;;11.90;99.90;;;;;;5043318;28;20040;-71
2022/11/07 08:56:29;;;;;;;10.65;1.40;;;11.90;99.90;;;;;;5053156;28;20482;-71
2022/11/07 08:58:54;;;;;;;3.25;1.08;;;11.90;99.90;;;;;;5042777;28;21195;-71
2022/11/07 09:01:20;;;;;;;3.13;1.50;;;12.00;99.90;;;;;;5041949;28;20033;-71
2022/11/07 09:03:46;;;;;;;7.18;1.48;;;12.00;99.90;;;;;;5043266;28;20576;-71
2022/11/07 09:06:11;;;;;;;2.63;1.35;;;12.00;99.90;;;;;;5042434;28;20405;-71
2022/11/07 09:08:37;;;;;;;2.28;1.15;;;12.00;99.90;;;;;;5052680;28;20069;-71
2022/11/07 09:11:04;;;;;;;3.65;1.00;;;12.10;99.90;;;;;;5050405;28;21087;-71
2022/11/07 09:13:31;;;;;;;5.25;1.35;;;12.00;99.90;;;;;;5024455;28;20111;-71
2022/11/07 09:16:02;;;;;;;8.18;1.42;;;12.00;99.90;;;;;;5041975;28;20127;-72
2022/11/07 09:18:28;;;;;;;3.70;1.00;;;12.00;99.90;;;;;;5043898;28;20037;-72
2022/11/07 09:20:54;;;;;;;3.13;1.27;;;12.10;99.90;;;;;;5045734;28;20048;-71
2022/11/07 09:23:19;;;;;;;3.17;0.93;;;12.10;99.90;;;;;;5042471;28;20040;-71
2022/11/07 09:25:45;;;;;;;1.98;0.93;;;12.00;99.90;;;;;;5046274;28;20112;-71
2022/11/07 09:28:12;;;;;;;2.53;0.93;;;12.00;99.90;;;;;;5042289;28;20041;-72
2022/11/07 09:30:37;;;;;;;2.53;1.10;;;12.00;99.90;;;;;;5048366;28;20170;-71
2022/11/07 09:33:03;;;;;;;3.08;1.15;;;11.90;99.90;;;;;;5047891;28;20498;-72
2022/11/07 09:35:29;;;;;;;3.00;0.90;;;11.90;99.90;;;;;;5046541;28;20040;-71
2022/11/07 09:37:54;;;;;;;8.25;1.70;;;12.00;99.90;;;;;;5045528;28;20048;-71
2022/11/07 09:40:26;;;;;;;2.70;1.20;;;11.90;99.90;;;;;;5046780;28;20121;-71
2022/11/07 09:43:09;;;;;;;5.35;1.33;;;11.90;99.90;;;;;;5055520;28;20037;-71
2022/11/07 09:45:49;;;;;;;1.83;0.90;;;11.90;99.90;;;;;;5053404;28;20040;-71
2022/11/07 09:48:20;;;;;;;2.55;1.27;;;11.90;99.90;;;;;;5047740;28;20162;-71
2022/11/07 09:50:48;;;;;;;6.43;0.95;;;11.90;99.90;;;;;;5042794;28;20048;-71
2022/11/07 09:53:32;;;;;;;3.15;0.68;;;12.00;99.90;;;;;;5061280;28;20485;-71
2022/11/07 09:56:05;;;;;;;2.67;1.00;;;12.00;99.90;;;;;;5043964;28;20130;-71
2022/11/07 09:58:50;;;;;;;2.95;1.08;;;12.00;99.90;;;;;;5050015;28;20748;-73
2022/11/07 10:01:17;;;;;;;2.33;1.17;;;12.00;99.90;;;;;;5045371;28;20036;-71
2022/11/07 10:03:44;;;;;;;3.15;1.02;;;12.10;99.90;;;;;;5034337;28;20577;-72
2022/11/07 10:06:23;;;;;;;2.20;1.50;;;12.20;99.90;;;;;;5050180;28;20041;-70
2022/11/07 10:09:19;;;;;;;1.42;0.88;;;12.20;99.90;;;;;;5046559;28;20795;-70
2022/11/07 10:12:04;;;;;;;4.32;1.08;;;12.20;99.90;;;;;;5049298;28;20309;-70
2022/11/07 10:14:32;;;;;;;2.95;1.00;;;12.20;99.90;;;;;;5030768;28;20044;-70
2022/11/07 10:17:23;;;;;;;1.88;0.85;;;12.20;99.90;;;;;;5051226;28;20478;-70
2022/11/07 10:19:51;;;;;;;4.35;1.77;;;12.30;99.90;;;;;;5057261;28;20108;-70
2022/11/07 10:22:45;;;;;;;9.20;2.00;;;12.30;99.90;;;;;;5047204;28;20044;-70
2022/11/07 10:25:31;;;;;;;2.00;0.93;;;12.30;99.90;;;;;;5037077;28;20106;-70
2022/11/07 10:28:14;;;;;;;3.05;1.30;;;12.40;99.90;;;;;;5046012;28;20650;-70
2022/11/07 10:30:43;;;;;;;3.78;1.42;;;12.50;99.90;;;;;;5049916;28;20678;-70
2022/11/07 10:33:30;;;;;;;1.77;0.85;;;12.50;99.90;;;;;;5051491;28;20040;-70
2022/11/07 10:36:03;;;;;;;2.45;1.17;;;12.50;99.90;;;;;;5055091;28;20271;-70
2022/11/07 10:38:32;;;;;;;1.60;0.80;;;12.60;99.90;;;;;;5029919;28;20506;-70
2022/11/07 10:40:58;;;;;;;4.10;1.10;;;12.60;99.90;;;;;;5044155;28;20040;-70
2022/11/07 10:43:40;;;;;;;2.67;1.08;;;12.60;99.90;;;;;;5061375;28;20037;-70
2022/11/07 10:46:37;;;;;;;2.90;1.17;;;12.60;99.90;;;;;;5057285;28;20044;-70
2022/11/07 10:49:14;;;;;;;1.88;0.90;;;12.70;99.90;;;;;;5042081;28;20056;-70
2022/11/07 10:51:41;;;;;;;1.42;0.90;;;12.70;99.90;;;;;;5043940;28;20095;-70
2022/11/07 10:54:21;;;;;;;4.30;1.10;;;12.70;99.90;;;;;;5050940;28;20039;-71
2022/11/07 10:56:52;;;;;;;6.03;1.10;;;12.70;99.90;;;;;;5045969;28;20025;-71
2022/11/07 10:59:27;;;;;;;1.80;0.90;;;12.70;99.90;;;;;;5040627;28;20048;-70
2022/11/07 11:01:55;;;;;;;5.05;0.82;;;12.80;99.90;;;;;;5045250;28;20060;-72
2022/11/07 11:04:31;;;;;;;4.38;0.90;;;12.80;99.90;;;;;;5051756;28;20047;-72
2022/11/07 11:07:03;;;;;;;1.73;0.93;;;12.90;99.90;;;;;;5050259;28;20025;-72
2022/11/07 11:09:34;;;;;;;3.70;1.20;;;12.90;99.90;;;;;;5064222;28;20056;-72
2022/11/07 11:12:05;;;;;;;4.22;1.20;;;13.00;99.90;;;;;;5041513;28;20041;-72
2022/11/07 11:14:31;;;;;;;5.93;1.30;;;13.10;99.90;;;;;;5026528;28;20045;-72
2022/11/07 11:16:56;;;;;;;2.28;1.35;;;13.10;99.90;;;;;;5054448;28;20078;-72
2022/11/07 11:19:25;;;;;;;2.92;1.13;;;13.10;99.90;;;;;;5044344;28;20032;-72
2022/11/07 11:21:53;;;;;;;2.38;1.02;;;13.20;99.90;;;;;;5053896;28;20086;-71
2022/11/07 11:24:30;;;;;;;6.68;1.33;;;13.20;99.90;;;;;;5047236;28;20482;-71
2022/11/07 11:27:15;;;;;;;2.63;1.05;;;13.20;99.90;;;;;;5049775;28;20084;-72
2022/11/07 11:30:05;;;;;;;3.97;1.00;;;13.20;99.90;;;;;;5036165;28;20045;-72
2022/11/07 11:32:37;;;;;;;3.97;0.90;;;13.20;99.90;;;;;;5051457;28;20041;-72
2022/11/07 11:35:44;;;;;;;3.50;1.00;;;13.20;99.90;;;;;;5032352;28;20047;-71
2022/11/07 11:38:25;;;;;;;7.78;1.02;;;13.20;99.90;;;;;;5050665;28;20352;-71
2022/11/07 11:40:55;;;;;;;1.70;0.77;;;13.20;99.90;;;;;;5046083;28;20507;-71
2022/11/07 11:43:25;;;;;;;4.47;1.13;;;13.30;99.90;;;;;;5048873;28;20076;-71
2022/11/07 11:46:13;;;;;;;1.25;1.15;;;13.30;99.90;;;;;;5059434;28;20051;-71
2022/11/07 11:48:52;;;;;;;3.00;1.23;;;13.30;99.90;;;;;;5045872;28;20040;-71
2022/11/07 11:51:39;;;;;;;5.72;1.45;;;13.30;99.90;;;;;;5046531;28;20052;-71
2022/11/07 11:54:11;;;;;;;2.97;0.85;;;13.40;99.90;;;;;;5047748;28;20116;-71
2022/11/07 11:56:51;;;;;;;3.90;1.00;;;13.40;99.90;;;;;;5043757;28;20045;-70
2022/11/07 11:59:45;;;;;;;2.47;0.88;;;13.40;99.90;;;;;;5042974;28;20204;-71
2022/11/07 12:02:47;;;;;;;1.05;0.63;;;13.40;99.90;;;;;;5056909;28;20049;-71
2022/11/07 12:05:41;;;;;;;1.30;0.73;;;13.40;99.90;;;;;;5064663;28;20047;-71
2022/11/07 12:08:13;;;;;;;1.30;0.70;;;13.40;99.90;;;;;;5048195;28;20045;-71
2022/11/07 12:11:04;;;;;;;3.17;1.02;;;13.40;99.90;;;;;;5030663;28;20098;-71
2022/11/07 12:13:40;;;;;;;1.80;0.70;;;13.40;99.90;;;;;;5031282;28;20045;-70
2022/11/07 12:16:32;;;;;;;1.50;0.65;;;13.40;99.90;;;;;;5049292;28;20036;-70
2022/11/07 12:19:11;;;;;;;1.20;0.75;;;13.40;99.90;;;;;;5046897;28;20185;-71
2022/11/07 12:21:49;;;;;;;1.42;0.85;;;13.40;99.90;;;;;;5049526;28;20395;-71
2022/11/07 12:24:39;;;;;;;2.65;0.80;;;13.40;99.90;;;;;;5066667;28;20052;-71
2022/11/07 12:27:13;;;;;;;4.63;0.80;;;13.40;99.90;;;;;;5050682;28;20041;-71
2022/11/07 12:29:42;;;;;;;6.07;1.08;;;13.40;99.90;;;;;;5068813;28;20036;-71
2022/11/07 12:32:16;;;;;;;1.58;0.90;;;13.40;99.90;;;;;;5057612;28;20060;-71
2022/11/07 12:35:07;;;;;;;4.85;1.00;;;13.50;99.90;;;;;;5065741;28;20041;-71
2022/11/07 12:37:42;;;;;;;2.13;1.00;;;13.50;99.90;;;;;;5069045;28;20043;-71
2022/11/07 12:40:28;;;;;;;4.40;1.10;;;13.60;99.90;;;;;;5066988;28;20049;-71
2022/11/07 12:43:18;;;;;;;4.55;1.77;;;13.60;99.90;;;;;;5067242;28;20049;-71
2022/11/07 12:46:34;;;;;;;1.90;1.15;;;13.70;99.90;;;;;;5067970;28;20643;-71
2022/11/07 12:49:38;;;;;;;3.70;0.90;;;13.70;99.90;;;;;;5038297;28;20056;-71
2022/11/07 12:52:13;;;;;;;3.15;1.30;;;13.70;99.90;;;;;;5032069;28;20110;-71
2022/11/07 12:54:59;;;;;;;3.80;1.00;;;13.70;99.90;;;;;;5066791;28;20263;-71
2022/11/07 12:57:30;;;;;;;1.58;0.85;;;13.70;99.90;;;;;;5050309;28;20044;-71
2022/11/07 13:00:04;;;;;;;5.18;1.52;;;13.70;99.90;;;;;;5067735;28;20051;-71
2022/11/07 13:02:42;;;;;;;4.82;0.98;;;13.70;99.90;;;;;;5067486;28;20044;-71
2022/11/07 13:05:45;;;;;;;5.38;1.08;;;13.60;99.90;;;;;;5049633;28;20498;-71
2022/11/07 13:08:30;;;;;;;5.40;0.80;;;13.60;99.90;;;;;;5051250;28;20052;-71
2022/11/07 13:11:03;;;;;;;4.30;1.35;;;13.60;99.90;;;;;;5054339;28;20057;-71